Time;durP1;ratioP1;P1;durP2;ratioP2;P2;SDS_P1;SDS_P2;PMS_P1;PMS_P2;Temp;Humidity;BMP_temperature;BMP_pressure;BME280_temperature;BME280_humidity;BME280_pressure;Samples;Min_cycle;Max_cycle;Signal;HPM_P1;HPM_P2
2023/12/08 00:04:40;;;;;;;16.30;13.33;;;2.10;40.40;;;;;;10426724;28;20232;-76
2023/12/08 00:09:43;;;;;;;15.27;12.87;;;2.20;40.40;;;;;;10420225;28;20315;-76
2023/12/08 00:14:47;;;;;;;11.30;10.13;;;2.20;40.40;;;;;;10414430;28;20632;-76
2023/12/08 00:19:52;;;;;;;14.90;11.40;;;2.20;40.30;;;;;;10420608;28;20256;-76
2023/12/08 00:24:56;;;;;;;13.53;11.93;;;2.20;40.00;;;;;;10419150;28;20232;-76
2023/12/08 00:29:59;;;;;;;13.70;11.93;;;2.20;40.10;;;;;;10424234;28;20244;-76
2023/12/08 00:35:04;;;;;;;13.43;12.03;;;2.20;40.00;;;;;;10422015;28;20233;-75
2023/12/08 00:40:09;;;;;;;14.17;12.30;;;2.10;39.80;;;;;;10414890;28;20236;-76
2023/12/08 00:45:12;;;;;;;14.07;12.27;;;2.10;39.70;;;;;;10415347;28;20236;-76
2023/12/08 00:50:17;;;;;;;13.23;11.73;;;2.20;39.70;;;;;;10413562;28;20272;-76
2023/12/08 00:55:20;;;;;;;13.73;11.83;;;2.10;39.70;;;;;;10415594;28;20237;-76
2023/12/08 01:00:23;;;;;;;13.30;11.90;;;2.10;39.90;;;;;;10420388;28;21235;-76
2023/12/08 01:05:28;;;;;;;12.77;11.37;;;2.20;40.10;;;;;;10419402;28;20739;-76
2023/12/08 01:10:32;;;;;;;12.93;10.40;;;2.00;40.00;;;;;;10415779;28;20237;-76
2023/12/08 01:15:35;;;;;;;12.40;10.73;;;2.00;40.30;;;;;;10415055;28;20318;-76
2023/12/08 01:20:39;;;;;;;12.03;10.77;;;2.00;40.30;;;;;;10414024;28;20271;-75
2023/12/08 01:25:43;;;;;;;13.17;11.77;;;2.00;40.30;;;;;;10412757;28;20234;-76
2023/12/08 01:30:46;;;;;;;13.37;12.03;;;2.00;40.30;;;;;;10411291;28;20244;-76
2023/12/08 01:35:50;;;;;;;13.43;12.03;;;2.10;40.40;;;;;;10414449;28;20233;-76
2023/12/08 01:41:14;;;;;;;13.00;11.33;;;2.10;40.20;;;;;;10415032;28;20601;-75
2023/12/08 01:46:20;;;;;;;13.13;11.73;;;2.10;40.30;;;;;;10420299;28;20236;-76
2023/12/08 01:51:24;;;;;;;13.27;11.07;;;2.00;40.30;;;;;;10411756;28;20240;-75
2023/12/08 01:56:28;;;;;;;14.43;11.10;;;2.00;40.30;;;;;;10410238;28;20313;-75
2023/12/08 02:01:31;;;;;;;12.53;10.90;;;2.00;40.30;;;;;;10413837;28;20236;-75
2023/12/08 02:06:36;;;;;;;12.83;11.27;;;2.00;40.30;;;;;;10413359;28;20755;-75
2023/12/08 02:11:40;;;;;;;11.63;10.40;;;2.00;40.50;;;;;;10411222;28;20239;-75
2023/12/08 02:16:50;;;;;;;12.60;11.03;;;2.10;40.50;;;;;;10416722;28;20228;-75
2023/12/08 02:21:55;;;;;;;13.27;11.83;;;2.10;40.40;;;;;;10412044;28;20239;-75
2023/12/08 02:27:00;;;;;;;11.03;9.90;;;2.10;40.30;;;;;;10415494;28;20233;-75
2023/12/08 02:32:08;;;;;;;11.63;10.43;;;2.10;40.20;;;;;;10416178;28;20244;-75
2023/12/08 02:37:13;;;;;;;11.33;10.13;;;2.10;40.40;;;;;;10414397;28;20252;-75
2023/12/08 02:42:18;;;;;;;12.30;11.00;;;2.10;40.40;;;;;;10414132;28;20260;-75
2023/12/08 02:47:21;;;;;;;12.70;11.40;;;2.20;40.40;;;;;;10415610;28;20246;-75
2023/12/08 02:52:25;;;;;;;13.13;10.97;;;2.10;40.40;;;;;;10415583;28;20244;-75
2023/12/08 02:57:29;;;;;;;12.83;11.50;;;2.10;40.40;;;;;;10416483;28;20237;-75
2023/12/08 03:02:32;;;;;;;14.53;12.07;;;2.20;40.40;;;;;;10416140;28;20335;-75
2023/12/08 03:07:36;;;;;;;13.70;11.23;;;2.20;40.40;;;;;;10417952;28;20769;-75
2023/12/08 03:12:40;;;;;;;12.93;11.10;;;2.20;40.40;;;;;;10412907;28;20257;-75
2023/12/08 03:17:44;;;;;;;12.93;10.80;;;2.20;40.50;;;;;;10411094;28;20414;-75
2023/12/08 03:22:47;;;;;;;13.57;11.83;;;2.20;40.50;;;;;;10410523;28;20232;-74
2023/12/08 03:27:51;;;;;;;13.30;11.83;;;2.20;40.50;;;;;;10416810;28;20255;-74
2023/12/08 03:32:54;;;;;;;14.17;11.47;;;2.20;40.40;;;;;;10421916;28;20236;-74
2023/12/08 03:37:58;;;;;;;13.40;11.80;;;2.20;40.40;;;;;;10417372;28;20229;-74
2023/12/08 03:43:02;;;;;;;12.00;10.73;;;2.20;40.40;;;;;;10417343;28;20321;-74
2023/12/08 03:48:05;;;;;;;13.83;11.83;;;2.10;40.40;;;;;;10415071;28;20233;-74
2023/12/08 03:53:09;;;;;;;13.50;11.80;;;2.10;40.50;;;;;;10416342;28;20237;-74
2023/12/08 03:58:13;;;;;;;13.53;11.57;;;2.10;40.80;;;;;;10418107;28;20232;-74
2023/12/08 04:03:16;;;;;;;14.33;12.63;;;2.10;41.00;;;;;;10419813;28;20783;-74
2023/12/08 04:08:20;;;;;;;14.10;12.37;;;2.10;41.10;;;;;;10424247;28;20284;-74
2023/12/08 04:13:24;;;;;;;12.47;11.13;;;2.10;41.20;;;;;;10416615;28;20767;-74
2023/12/08 04:18:27;;;;;;;13.57;11.80;;;2.20;41.30;;;;;;10418881;28;20238;-74
2023/12/08 04:23:31;;;;;;;13.30;11.30;;;2.20;41.40;;;;;;10415542;28;20295;-73
2023/12/08 04:28:35;;;;;;;12.10;10.87;;;2.20;41.50;;;;;;10413010;28;20503;-74
2023/12/08 04:33:38;;;;;;;14.20;12.33;;;2.30;41.60;;;;;;10415364;28;20603;-74
2023/12/08 04:38:42;;;;;;;14.53;12.53;;;2.40;41.50;;;;;;10416345;28;20329;-73
2023/12/08 04:43:46;;;;;;;12.87;11.10;;;2.40;41.10;;;;;;10416793;28;20260;-73
2023/12/08 04:48:50;;;;;;;14.03;12.07;;;2.40;41.20;;;;;;10416476;28;20244;-73
2023/12/08 04:53:53;;;;;;;14.07;12.27;;;2.40;41.30;;;;;;10419570;28;20230;-73
2023/12/08 04:58:58;;;;;;;12.57;11.27;;;2.40;41.30;;;;;;10417908;28;20225;-73
2023/12/08 05:04:01;;;;;;;12.20;10.90;;;2.40;41.30;;;;;;10421023;28;20256;-73
2023/12/08 05:09:04;;;;;;;13.67;12.27;;;2.40;41.40;;;;;;10421618;28;20228;-73
2023/12/08 05:14:09;;;;;;;14.33;12.37;;;2.50;41.50;;;;;;10420216;28;20236;-74
2023/12/08 05:19:12;;;;;;;13.33;11.97;;;2.40;41.20;;;;;;10419173;28;20217;-73
2023/12/08 05:24:15;;;;;;;13.80;11.53;;;2.40;41.10;;;;;;10418823;28;20228;-73
2023/12/08 05:29:20;;;;;;;14.43;12.80;;;2.40;41.40;;;;;;10417907;28;20339;-73
2023/12/08 05:34:23;;;;;;;13.97;12.23;;;2.40;41.60;;;;;;10413330;28;20712;-73
2023/12/08 05:39:26;;;;;;;15.90;13.40;;;2.40;41.70;;;;;;10415074;28;20237;-73
2023/12/08 05:44:30;;;;;;;13.73;11.83;;;2.50;41.60;;;;;;10416168;28;21160;-73
2023/12/08 05:49:34;;;;;;;14.20;12.50;;;2.50;41.50;;;;;;10410596;28;20232;-73
2023/12/08 05:54:37;;;;;;;12.70;11.20;;;2.50;41.50;;;;;;10416932;28;20229;-73
2023/12/08 05:59:42;;;;;;;12.90;11.57;;;2.50;41.50;;;;;;10414635;28;20225;-73
2023/12/08 06:04:45;;;;;;;13.00;11.63;;;2.40;41.50;;;;;;10416447;28;20233;-74
2023/12/08 06:09:51;;;;;;;13.13;11.73;;;2.40;41.60;;;;;;10414429;28;20238;-74
2023/12/08 06:14:59;;;;;;;13.47;12.07;;;2.40;41.80;;;;;;10418691;28;20225;-74
2023/12/08 06:20:05;;;;;;;13.40;11.47;;;2.60;42.00;;;;;;10419244;28;20308;-74
2023/12/08 06:25:09;;;;;;;13.03;11.67;;;2.60;42.50;;;;;;10418456;28;20324;-74
2023/12/08 06:30:14;;;;;;;13.87;12.43;;;2.70;42.50;;;;;;10420425;28;20712;-74
2023/12/08 06:35:18;;;;;;;12.67;10.80;;;2.80;42.60;;;;;;10422205;28;20229;-74
2023/12/08 06:40:21;;;;;;;13.93;12.43;;;2.90;42.30;;;;;;10417425;28;20229;-74
2023/12/08 06:45:25;;;;;;;14.00;12.50;;;3.00;42.20;;;;;;10420518;28;20316;-74
2023/12/08 06:50:30;;;;;;;13.47;12.10;;;3.10;41.90;;;;;;10418688;28;20316;-74
2023/12/08 06:55:33;;;;;;;15.10;13.50;;;3.10;41.60;;;;;;10419240;28;20236;-74
2023/12/08 07:00:38;;;;;;;13.07;11.73;;;3.10;41.60;;;;;;10424605;28;20221;-74
2023/12/08 07:05:41;;;;;;;13.93;12.43;;;3.00;41.60;;;;;;10430469;28;20237;-74
2023/12/08 07:10:45;;;;;;;13.67;12.23;;;3.10;41.70;;;;;;10431736;28;20232;-74
2023/12/08 07:15:50;;;;;;;14.60;13.03;;;3.00;41.50;;;;;;10432544;28;20758;-74
2023/12/08 07:20:53;;;;;;;12.80;10.93;;;3.00;41.20;;;;;;10426116;28;20284;-75
2023/12/08 07:25:56;;;;;;;14.23;11.80;;;3.00;41.30;;;;;;10428688;28;20233;-75
2023/12/08 07:31:01;;;;;;;14.07;11.63;;;3.00;41.50;;;;;;10434705;28;20308;-75
2023/12/08 07:36:06;;;;;;;13.13;11.80;;;2.90;41.50;;;;;;10427409;28;20315;-75
2023/12/08 07:41:09;;;;;;;15.47;13.77;;;2.90;41.70;;;;;;10428130;28;20225;-75
2023/12/08 07:46:14;;;;;;;39.90;28.40;;;3.00;41.80;;;;;;10429317;28;20233;-75
2023/12/08 07:51:18;;;;;;;19.23;15.27;;;3.00;41.70;;;;;;10427337;28;20700;-75
2023/12/08 07:56:23;;;;;;;19.33;14.70;;;3.10;41.50;;;;;;10430195;28;20431;-75
2023/12/08 08:01:27;;;;;;;17.87;14.70;;;3.10;41.50;;;;;;10426450;28;20230;-76
2023/12/08 08:06:31;;;;;;;13.73;12.17;;;3.10;41.50;;;;;;10431114;28;20243;-75
2023/12/08 08:11:34;;;;;;;15.00;13.03;;;3.10;41.40;;;;;;10419277;28;20225;-74
2023/12/08 08:16:40;;;;;;;16.07;13.50;;;3.20;41.50;;;;;;10419475;28;21196;-74
2023/12/08 08:21:43;;;;;;;14.20;12.57;;;3.10;41.40;;;;;;10420378;28;20237;-75
2023/12/08 08:27:06;;;;;;;13.93;12.43;;;3.10;41.20;;;;;;10419509;28;20220;-75
2023/12/08 08:32:11;;;;;;;12.83;11.50;;;3.10;41.20;;;;;;10421492;28;20303;-75
2023/12/08 08:37:14;;;;;;;13.03;11.73;;;3.10;41.20;;;;;;10421570;28;20236;-75
2023/12/08 08:42:17;;;;;;;12.53;11.23;;;3.10;41.60;;;;;;10416985;28;20861;-75
2023/12/08 08:47:22;;;;;;;13.80;12.37;;;3.10;41.40;;;;;;10420386;28;20229;-75
2023/12/08 08:52:25;;;;;;;15.00;13.40;;;3.10;41.50;;;;;;10434068;28;20743;-76
2023/12/08 08:57:29;;;;;;;14.47;12.37;;;3.10;41.50;;;;;;10427685;28;20696;-75
2023/12/08 09:02:33;;;;;;;14.43;12.93;;;3.20;41.50;;;;;;10430226;28;20229;-76
2023/12/08 09:07:36;;;;;;;14.73;13.13;;;3.30;41.60;;;;;;10429750;28;20232;-77
2023/12/08 09:12:39;;;;;;;15.70;14.00;;;3.40;41.40;;;;;;10423142;28;20319;-74
2023/12/08 09:17:44;;;;;;;15.87;13.53;;;3.50;41.50;;;;;;10428070;28;20237;-74
2023/12/08 09:22:47;;;;;;;12.67;11.37;;;3.50;41.50;;;;;;10427863;28;20218;-75
2023/12/08 09:27:52;;;;;;;16.77;14.93;;;3.60;41.60;;;;;;10426849;28;20255;-74
2023/12/08 09:32:56;;;;;;;18.93;15.37;;;3.70;41.50;;;;;;10425656;28;20233;-75
2023/12/08 09:37:59;;;;;;;16.20;14.00;;;3.60;41.60;;;;;;10421705;28;20244;-75
2023/12/08 09:43:09;;;;;;;16.00;14.20;;;3.70;41.70;;;;;;10420078;28;20238;-75
2023/12/08 09:48:14;;;;;;;14.93;13.33;;;3.70;41.40;;;;;;10412150;28;20324;-75
2023/12/08 09:53:18;;;;;;;16.17;14.37;;;3.80;41.70;;;;;;10415718;28;20310;-74
2023/12/08 09:58:26;;;;;;;15.27;13.73;;;3.80;41.70;;;;;;10419416;28;20294;-74
2023/12/08 10:03:30;;;;;;;14.80;13.07;;;3.90;41.50;;;;;;10416197;28;20257;-74
2023/12/08 10:08:35;;;;;;;15.37;13.80;;;4.00;41.80;;;;;;10423654;28;20253;-74
2023/12/08 10:13:38;;;;;;;15.10;13.37;;;4.20;41.50;;;;;;10425895;28;20718;-75
2023/12/08 10:18:43;;;;;;;15.23;13.07;;;4.10;41.30;;;;;;10424248;28;20814;-76
2023/12/08 10:23:47;;;;;;;16.43;14.63;;;4.10;41.50;;;;;;10424495;28;20228;-75
2023/12/08 10:28:56;;;;;;;16.10;14.10;;;4.10;41.30;;;;;;10424121;28;20230;-75
2023/12/08 10:34:00;;;;;;;15.10;13.27;;;4.00;41.00;;;;;;10424166;28;20241;-75
2023/12/08 10:39:04;;;;;;;15.73;14.07;;;4.00;41.20;;;;;;10430390;28;20777;-75
2023/12/08 10:44:09;;;;;;;17.33;15.10;;;4.00;41.60;;;;;;10432575;28;20233;-75
2023/12/08 10:49:18;;;;;;;15.80;14.17;;;4.00;41.90;;;;;;10429732;28;20660;-75
2023/12/08 10:54:22;;;;;;;16.30;14.30;;;4.20;41.90;;;;;;10428397;28;20249;-75
2023/12/08 10:59:26;;;;;;;15.77;13.50;;;4.30;41.90;;;;;;10424440;28;20251;-75
2023/12/08 11:04:34;;;;;;;15.30;13.63;;;4.40;41.60;;;;;;10423790;28;20237;-75
2023/12/08 11:09:41;;;;;;;16.23;14.53;;;4.50;41.50;;;;;;10421947;28;20274;-75
2023/12/08 11:14:53;;;;;;;14.57;13.07;;;4.50;41.50;;;;;;10419265;28;20230;-75
2023/12/08 11:19:59;;;;;;;15.10;13.50;;;4.60;41.10;;;;;;10422458;28;20237;-75
2023/12/08 11:25:10;;;;;;;15.53;13.83;;;4.70;42.20;;;;;;10422449;28;20236;-75
2023/12/08 11:30:20;;;;;;;16.00;14.17;;;4.80;41.20;;;;;;10420947;28;20625;-76
2023/12/08 11:35:29;;;;;;;11.80;10.50;;;4.90;41.30;;;;;;10420382;28;20253;-73
2023/12/08 11:40:33;;;;;;;13.93;12.53;;;5.00;43.90;;;;;;10430843;28;20991;-74
2023/12/08 11:45:36;;;;;;;17.73;14.47;;;5.20;45.10;;;;;;10435139;28;20240;-75
2023/12/08 11:50:40;;;;;;;14.43;12.77;;;5.60;45.40;;;;;;10428333;28;20249;-75
2023/12/08 11:55:44;;;;;;;16.07;14.20;;;6.00;42.90;;;;;;10426833;28;20438;-75
2023/12/08 12:00:48;;;;;;;16.00;14.40;;;6.20;42.30;;;;;;10425819;28;20275;-75
2023/12/08 12:05:53;;;;;;;16.83;14.97;;;6.30;42.00;;;;;;10431787;28;20239;-75
2023/12/08 12:11:02;;;;;;;15.40;13.90;;;6.40;41.40;;;;;;10436932;28;20241;-75
2023/12/08 12:16:06;;;;;;;16.70;14.27;;;6.40;40.90;;;;;;10437792;28;20316;-75
2023/12/08 12:21:10;;;;;;;16.67;14.97;;;6.40;40.80;;;;;;10432475;28;20232;-74
2023/12/08 12:26:15;;;;;;;16.17;14.00;;;6.40;40.50;;;;;;10436555;28;20737;-73
2023/12/08 12:31:18;;;;;;;17.07;15.33;;;6.30;40.60;;;;;;10433070;28;20228;-75
2023/12/08 12:36:23;;;;;;;16.70;15.00;;;6.30;40.40;;;;;;10437754;28;20240;-75
2023/12/08 12:41:27;;;;;;;17.63;15.83;;;6.20;40.20;;;;;;10433617;28;20225;-73
2023/12/08 12:46:30;;;;;;;19.50;16.67;;;6.10;40.40;;;;;;10436695;28;20228;-75
2023/12/08 12:51:37;;;;;;;18.13;16.20;;;6.00;40.40;;;;;;10435507;28;20239;-76
2023/12/08 12:56:49;;;;;;;21.23;17.23;;;5.90;40.40;;;;;;10435612;28;20244;-76
2023/12/08 13:01:53;;;;;;;16.87;14.87;;;5.90;40.30;;;;;;10435156;28;20698;-76
2023/12/08 13:06:58;;;;;;;19.90;17.40;;;5.90;41.00;;;;;;10441169;28;20236;-76
2023/12/08 13:12:01;;;;;;;17.93;16.07;;;5.90;41.00;;;;;;10437531;28;20221;-75
2023/12/08 13:17:05;;;;;;;18.23;16.23;;;5.90;41.10;;;;;;10434178;28;20723;-76
2023/12/08 13:22:10;;;;;;;18.20;16.30;;;5.90;41.10;;;;;;10435478;28;20243;-75
2023/12/08 13:27:13;;;;;;;15.13;13.53;;;5.90;41.10;;;;;;10436915;28;20290;-74
2023/12/08 13:32:16;;;;;;;20.63;18.43;;;6.00;42.10;;;;;;10430052;28;20909;-74
2023/12/08 13:37:21;;;;;;;19.00;16.97;;;6.00;41.90;;;;;;10431825;28;20248;-74
2023/12/08 13:42:24;;;;;;;18.27;16.40;;;6.10;41.60;;;;;;10430679;28;20245;-75
2023/12/08 13:47:27;;;;;;;17.67;15.87;;;6.20;41.50;;;;;;10431397;28;20229;-74
2023/12/08 13:52:32;;;;;;;17.43;15.63;;;6.20;41.30;;;;;;10435514;28;20918;-75
2023/12/08 13:57:36;;;;;;;18.80;16.87;;;6.20;41.30;;;;;;10418987;28;20229;-74
2023/12/08 14:02:41;;;;;;;18.30;16.40;;;6.20;41.30;;;;;;10421913;28;20711;-73
2023/12/08 14:07:47;;;;;;;18.57;16.67;;;6.20;41.40;;;;;;10420162;28;20236;-73
2023/12/08 14:12:50;;;;;;;18.47;16.47;;;6.20;41.30;;;;;;10404942;28;20233;-73
2023/12/08 14:17:54;;;;;;;18.53;16.63;;;6.20;41.30;;;;;;10407665;28;20232;-73
2023/12/08 14:22:58;;;;;;;18.60;16.37;;;6.10;41.30;;;;;;10407070;28;20730;-74
2023/12/08 14:28:02;;;;;;;14.70;13.03;;;6.00;41.30;;;;;;10410353;28;20235;-74
2023/12/08 14:33:05;;;;;;;20.17;17.97;;;5.90;42.20;;;;;;10406363;28;20748;-74
2023/12/08 14:38:13;;;;;;;17.93;15.87;;;6.00;42.30;;;;;;10421050;28;20217;-72
2023/12/08 14:43:17;;;;;;;18.70;16.70;;;6.00;42.00;;;;;;10417438;28;20244;-72
2023/12/08 14:48:22;;;;;;;18.83;16.80;;;5.90;41.80;;;;;;10415971;28;20755;-73
2023/12/08 14:53:26;;;;;;;24.53;21.70;;;5.90;42.10;;;;;;10419111;28;20252;-74
2023/12/08 14:58:30;;;;;;;35.03;27.50;;;5.90;42.30;;;;;;10420212;28;20707;-75
2023/12/08 15:03:33;;;;;;;66.27;40.50;;;5.90;42.30;;;;;;10419360;28;20241;-74
2023/12/08 15:08:37;;;;;;;38.43;27.43;;;5.90;42.30;;;;;;10414282;28;21999;-74
2023/12/08 15:13:41;;;;;;;25.70;21.43;;;5.90;42.50;;;;;;10419706;28;20257;-74
2023/12/08 15:18:44;;;;;;;22.37;19.73;;;5.90;42.40;;;;;;10414879;28;20910;-75
2023/12/08 15:23:50;;;;;;;21.43;18.70;;;5.90;42.70;;;;;;10424710;28;20689;-74
2023/12/08 15:29:00;;;;;;;19.30;17.23;;;5.80;42.70;;;;;;10424891;28;20233;-74
2023/12/08 15:34:04;;;;;;;17.70;14.43;;;5.80;42.60;;;;;;10427021;28;20228;-71
2023/12/08 15:39:08;;;;;;;22.13;19.83;;;5.80;43.40;;;;;;10422434;28;20257;-73
2023/12/08 15:44:12;;;;;;;21.10;18.87;;;5.90;43.50;;;;;;10419307;28;20233;-73
2023/12/08 15:49:15;;;;;;;22.67;19.77;;;5.90;43.30;;;;;;10422460;28;20747;-73
2023/12/08 15:54:20;;;;;;;21.57;19.30;;;5.90;42.90;;;;;;10422436;28;20229;-73
2023/12/08 15:59:23;;;;;;;20.90;18.63;;;5.90;42.70;;;;;;10422313;28;20240;-73
2023/12/08 16:04:27;;;;;;;20.77;18.60;;;5.90;42.60;;;;;;10421825;28;20229;-73
2023/12/08 16:09:32;;;;;;;23.27;20.87;;;5.90;42.60;;;;;;10421799;28;20243;-73
2023/12/08 16:14:36;;;;;;;25.53;22.83;;;5.80;42.60;;;;;;10426625;28;20855;-72
2023/12/08 16:19:39;;;;;;;25.43;22.80;;;5.80;42.70;;;;;;10424900;28;20251;-72
2023/12/08 16:24:45;;;;;;;23.43;21.10;;;5.80;42.80;;;;;;10422422;28;20269;-72
2023/12/08 16:29:48;;;;;;;21.90;19.53;;;5.70;42.90;;;;;;10423076;28;20412;-73
2023/12/08 16:34:51;;;;;;;22.33;19.87;;;5.70;42.80;;;;;;10418884;28;20236;-73
2023/12/08 16:39:56;;;;;;;22.37;19.07;;;5.70;42.90;;;;;;10429479;28;20241;-73
2023/12/08 16:44:59;;;;;;;29.17;26.17;;;5.70;43.20;;;;;;10419812;28;20261;-74
2023/12/08 16:50:06;;;;;;;149.23;108.73;;;5.70;43.00;;;;;;10418792;28;20356;-74
2023/12/08 16:55:11;;;;;;;64.37;47.00;;;5.70;43.20;;;;;;10416877;28;20241;-74
2023/12/08 17:00:15;;;;;;;49.60;44.53;;;5.70;43.20;;;;;;10426372;28;20224;-74
2023/12/08 17:05:19;;;;;;;37.10;33.40;;;5.70;43.20;;;;;;10419477;28;20291;-74
2023/12/08 17:10:23;;;;;;;30.90;27.83;;;5.60;43.30;;;;;;10424774;28;20238;-74
2023/12/08 17:15:26;;;;;;;26.60;23.80;;;5.60;43.60;;;;;;10422418;28;20236;-74
2023/12/08 17:20:30;;;;;;;24.00;21.07;;;5.60;43.40;;;;;;10419950;28;20237;-74
2023/12/08 17:25:34;;;;;;;21.93;19.67;;;5.70;43.50;;;;;;10423964;28;20229;-74
2023/12/08 17:30:38;;;;;;;23.93;18.70;;;5.70;43.60;;;;;;10415677;28;20227;-74
2023/12/08 17:35:42;;;;;;;21.00;18.80;;;5.80;43.40;;;;;;10418745;28;20332;-73
2023/12/08 17:40:48;;;;;;;19.47;17.37;;;5.80;43.40;;;;;;10415622;28;20766;-75
2023/12/08 17:45:52;;;;;;;20.60;18.43;;;5.80;43.40;;;;;;10416452;28;20407;-75
2023/12/08 17:50:58;;;;;;;19.33;16.73;;;5.90;43.50;;;;;;10413067;28;20243;-75
2023/12/08 17:56:04;;;;;;;19.53;17.43;;;5.90;43.50;;;;;;10409670;28;20237;-74
2023/12/08 18:01:07;;;;;;;21.17;18.47;;;5.90;43.50;;;;;;10414492;28;20241;-75
2023/12/08 18:06:15;;;;;;;19.97;17.87;;;6.00;43.50;;;;;;10409874;28;20295;-75
2023/12/08 18:11:24;;;;;;;18.00;16.10;;;6.00;43.50;;;;;;10414109;28;20233;-74
2023/12/08 18:16:30;;;;;;;18.60;16.67;;;6.00;43.50;;;;;;10413064;28;20243;-75
2023/12/08 18:21:34;;;;;;;15.97;14.33;;;6.10;43.60;;;;;;10419620;28;20235;-75
2023/12/08 18:26:38;;;;;;;18.40;16.40;;;6.10;43.60;;;;;;10401785;28;20233;-74
2023/12/08 18:31:42;;;;;;;17.73;15.97;;;6.10;43.60;;;;;;10422062;28;20235;-76
2023/12/08 18:36:45;;;;;;;18.47;16.50;;;6.10;43.50;;;;;;10417847;28;20233;-76
2023/12/08 18:41:50;;;;;;;16.60;14.77;;;6.10;43.40;;;;;;10419105;28;20901;-74
2023/12/08 18:46:53;;;;;;;20.57;16.57;;;6.20;43.70;;;;;;10418879;28;20233;-74
2023/12/08 18:51:56;;;;;;;17.93;15.17;;;6.20;43.70;;;;;;10416541;28;20307;-75
2023/12/08 18:57:02;;;;;;;19.30;17.37;;;6.20;43.70;;;;;;10422504;28;20241;-74
2023/12/08 19:02:05;;;;;;;18.60;16.63;;;6.20;43.70;;;;;;10425663;28;20354;-75
2023/12/08 19:07:08;;;;;;;20.03;17.40;;;6.20;43.70;;;;;;10427249;28;20240;-75
2023/12/08 19:12:13;;;;;;;22.67;18.83;;;6.20;43.70;;;;;;10422998;28;20778;-74
2023/12/08 19:17:16;;;;;;;21.47;19.17;;;6.20;43.70;;;;;;10427480;28;20287;-74
2023/12/08 19:22:19;;;;;;;22.23;19.40;;;6.20;43.70;;;;;;10431594;28;20235;-74
2023/12/08 19:27:24;;;;;;;26.70;23.03;;;6.10;43.70;;;;;;10426284;28;20233;-74
2023/12/08 19:32:27;;;;;;;36.23;32.27;;;6.10;43.60;;;;;;10431588;28;20240;-74
2023/12/08 19:37:30;;;;;;;41.40;36.93;;;6.00;44.20;;;;;;10430307;28;20229;-74
2023/12/08 19:42:35;;;;;;;32.70;28.70;;;6.00;43.70;;;;;;10423151;28;20716;-75
2023/12/08 19:47:39;;;;;;;26.67;23.03;;;6.00;44.10;;;;;;10425426;28;20233;-75
2023/12/08 19:52:42;;;;;;;23.27;20.97;;;6.00;43.90;;;;;;10425298;28;20307;-74
2023/12/08 19:57:47;;;;;;;20.20;18.00;;;6.00;44.00;;;;;;10426875;28;20245;-74
2023/12/08 20:02:51;;;;;;;19.03;17.00;;;6.00;44.10;;;;;;10417078;28;20236;-75
2023/12/08 20:07:54;;;;;;;23.83;20.47;;;6.10;44.30;;;;;;10417047;28;20249;-75
2023/12/08 20:12:59;;;;;;;23.57;18.63;;;6.10;44.10;;;;;;10417571;28;20228;-76
2023/12/08 20:18:03;;;;;;;18.90;16.90;;;6.10;44.20;;;;;;10415502;28;20704;-76
2023/12/08 20:23:07;;;;;;;19.47;17.27;;;6.10;43.90;;;;;;10408757;28;20583;-77
2023/12/08 20:28:12;;;;;;;20.80;18.63;;;6.20;44.00;;;;;;10421874;28;20695;-78
2023/12/08 20:33:15;;;;;;;21.63;19.33;;;6.20;44.20;;;;;;10416107;28;20248;-76
2023/12/08 20:38:18;;;;;;;18.40;16.53;;;6.10;44.00;;;;;;10420426;28;20310;-76
2023/12/08 20:43:23;;;;;;;21.07;18.90;;;6.10;44.10;;;;;;10431682;28;20669;-75
2023/12/08 20:48:26;;;;;;;28.63;25.90;;;6.10;44.50;;;;;;10419584;28;20316;-74
2023/12/08 20:53:31;;;;;;;25.73;23.27;;;6.20;44.40;;;;;;10423912;28;20315;-75
2023/12/08 20:58:36;;;;;;;23.50;21.20;;;6.10;44.30;;;;;;10420054;28;20321;-74
2023/12/08 21:03:40;;;;;;;20.67;18.43;;;6.20;44.60;;;;;;10421301;28;20252;-74
2023/12/08 21:08:43;;;;;;;19.80;17.70;;;6.20;44.40;;;;;;10425478;28;20247;-74
2023/12/08 21:13:48;;;;;;;19.93;17.80;;;6.20;44.40;;;;;;10423319;28;20316;-74
2023/12/08 21:18:51;;;;;;;17.53;15.77;;;6.20;44.60;;;;;;10415497;28;20243;-74
2023/12/08 21:23:55;;;;;;;19.27;15.90;;;6.20;44.30;;;;;;10417883;28;20236;-75
2023/12/08 21:28:59;;;;;;;16.87;15.03;;;6.20;44.40;;;;;;10413809;28;20256;-75
2023/12/08 21:34:03;;;;;;;16.97;15.17;;;6.20;44.70;;;;;;10416769;28;20298;-74
2023/12/08 21:39:07;;;;;;;18.13;16.33;;;6.20;44.60;;;;;;10423121;28;20788;-74
2023/12/08 21:44:11;;;;;;;14.57;13.13;;;6.20;44.60;;;;;;10421569;28;20320;-74
2023/12/08 21:49:14;;;;;;;16.83;15.00;;;6.20;44.80;;;;;;10429299;28;20231;-74
2023/12/08 21:54:18;;;;;;;14.10;12.77;;;6.20;44.60;;;;;;10418836;28;20656;-75
2023/12/08 21:59:22;;;;;;;17.67;14.63;;;6.30;44.70;;;;;;10419990;28;20870;-74
2023/12/08 22:04:25;;;;;;;16.33;14.63;;;6.30;44.80;;;;;;10420283;28;20323;-74
2023/12/08 22:09:29;;;;;;;16.00;13.73;;;6.30;44.60;;;;;;10427593;28;20221;-75
2023/12/08 22:14:33;;;;;;;13.93;12.53;;;6.30;44.60;;;;;;10422018;28;20237;-74
2023/12/08 22:19:36;;;;;;;13.70;12.40;;;6.20;44.80;;;;;;10419105;28;20236;-75
2023/12/08 22:24:40;;;;;;;12.40;11.03;;;6.20;44.70;;;;;;10415800;28;20240;-74
2023/12/08 22:29:44;;;;;;;14.60;13.17;;;6.20;44.70;;;;;;10417630;28;20225;-74
2023/12/08 22:34:50;;;;;;;15.47;13.80;;;6.30;44.90;;;;;;10413332;28;20228;-74
2023/12/08 22:39:53;;;;;;;12.67;11.37;;;6.30;44.70;;;;;;10418843;28;20751;-74
2023/12/08 22:44:58;;;;;;;13.27;11.87;;;6.30;44.60;;;;;;10417399;28;20875;-75
2023/12/08 22:50:01;;;;;;;14.20;12.80;;;6.40;44.80;;;;;;10416800;28;20337;-75
2023/12/08 22:55:06;;;;;;;13.73;12.33;;;6.40;44.60;;;;;;10413414;28;20263;-74
2023/12/08 23:00:19;;;;;;;13.20;11.83;;;6.40;44.70;;;;;;10416181;28;20237;-74
2023/12/08 23:05:22;;;;;;;13.33;12.10;;;6.40;44.90;;;;;;10419510;28;20257;-75
2023/12/08 23:10:25;;;;;;;13.67;12.37;;;6.40;44.80;;;;;;10419268;28;20247;-75
2023/12/08 23:15:30;;;;;;;15.10;13.20;;;6.40;44.70;;;;;;10420749;28;20326;-75
2023/12/08 23:20:34;;;;;;;13.47;12.07;;;6.40;44.80;;;;;;10415656;28;20253;-75
2023/12/08 23:25:37;;;;;;;13.17;11.87;;;6.40;44.70;;;;;;10417901;28;20240;-74
2023/12/08 23:30:41;;;;;;;12.57;11.27;;;6.40;44.80;;;;;;10419073;28;20233;-74
2023/12/08 23:35:59;;;;;;;13.20;11.90;;;6.40;45.10;;;;;;10415050;28;20229;-74
2023/12/08 23:41:02;;;;;;;13.00;11.70;;;6.40;45.00;;;;;;10422129;28;20229;-75
2023/12/08 23:46:08;;;;;;;12.40;11.20;;;6.40;44.90;;;;;;10431569;28;20232;-74
2023/12/08 23:51:11;;;;;;;13.03;11.47;;;6.50;45.30;;;;;;10423321;28;20221;-75
2023/12/08 23:56:15;;;;;;;13.13;11.73;;;6.50;44.80;;;;;;10426243;28;20225;-74
